Time;durP1;ratioP1;P1;durP2;ratioP2;P2;SDS_P1;SDS_P2;PMS_P1;PMS_P2;Temp;Humidity;BMP_temperature;BMP_pressure;BME280_temperature;BME280_humidity;BME280_pressure;Samples;Min_cycle;Max_cycle;Signal;HPM_P1;HPM_P2
2023/10/29 00:01:16;;;;;;;4.50;2.90;;;9.30;99.90;;;;;;5018751;28;20022;-81
2023/10/29 00:03:42;;;;;;;6.57;3.35;;;9.20;99.90;;;;;;5014027;28;20061;-81
2023/10/29 00:06:10;;;;;;;3.78;2.40;;;9.20;99.90;;;;;;5013318;28;20133;-80
2023/10/29 00:08:36;;;;;;;11.90;5.68;;;9.20;99.90;;;;;;5009196;28;20037;-80
2023/10/29 00:11:02;;;;;;;14.88;5.63;;;9.20;99.90;;;;;;5011526;28;20493;-81
2023/10/29 00:13:28;;;;;;;20.70;8.95;;;9.30;99.90;;;;;;4979981;28;20029;-82
2023/10/29 00:15:54;;;;;;;18.10;8.13;;;9.30;99.90;;;;;;5014129;28;20018;-80
2023/10/29 00:18:20;;;;;;;21.50;8.75;;;9.30;99.90;;;;;;5013450;28;20037;-81
2023/10/29 00:20:45;;;;;;;12.75;6.78;;;9.30;99.90;;;;;;5012228;28;20108;-80
2023/10/29 00:23:13;;;;;;;10.13;5.45;;;9.20;99.90;;;;;;5012925;28;20041;-81
2023/10/29 00:25:38;;;;;;;9.68;4.63;;;9.20;99.90;;;;;;5016722;28;20126;-80
2023/10/29 00:28:04;;;;;;;12.55;4.95;;;9.20;99.90;;;;;;5012536;28;20058;-80
2023/10/29 00:30:30;;;;;;;8.90;4.95;;;9.20;99.90;;;;;;5016793;28;20666;-81
2023/10/29 00:32:55;;;;;;;16.52;7.45;;;9.20;99.90;;;;;;5006937;28;20034;-80
2023/10/29 00:35:21;;;;;;;13.23;6.22;;;9.20;99.90;;;;;;5018671;28;20641;-79
2023/10/29 00:37:47;;;;;;;11.80;5.80;;;9.20;99.90;;;;;;5018488;28;20033;-81
2023/10/29 00:40:14;;;;;;;12.07;5.07;;;9.20;99.90;;;;;;5018952;28;20411;-81
2023/10/29 00:42:40;;;;;;;11.32;5.85;;;9.20;99.90;;;;;;5021690;28;20285;-81
2023/10/29 00:45:07;;;;;;;10.45;5.18;;;9.20;99.90;;;;;;5020124;28;20456;-80
2023/10/29 00:47:34;;;;;;;9.80;4.85;;;9.20;99.90;;;;;;5017528;28;20436;-80
2023/10/29 00:49:59;;;;;;;10.23;4.38;;;9.20;99.90;;;;;;5037903;28;20037;-82
2023/10/29 00:52:26;;;;;;;7.80;4.30;;;9.20;99.90;;;;;;5022662;28;20040;-82
2023/10/29 00:54:52;;;;;;;7.20;3.53;;;9.20;99.90;;;;;;5018296;28;20041;-80
2023/10/29 00:57:18;;;;;;;6.25;2.92;;;9.20;99.90;;;;;;5013388;28;20555;-81
2023/10/29 00:59:44;;;;;;;6.90;3.03;;;9.20;99.90;;;;;;5002716;28;20108;-81
2023/10/29 01:02:10;;;;;;;5.28;3.00;;;9.20;99.90;;;;;;5016445;28;20031;-81
2023/10/29 01:04:36;;;;;;;4.03;3.30;;;9.10;99.90;;;;;;5016740;28;20110;-81
2023/10/29 01:07:03;;;;;;;5.63;2.70;;;9.10;99.90;;;;;;5018090;28;20030;-81
2023/10/29 01:09:30;;;;;;;4.03;2.70;;;9.10;99.90;;;;;;5017062;28;20113;-81
2023/10/29 01:11:56;;;;;;;6.85;2.90;;;9.10;99.90;;;;;;5031854;28;20072;-81
2023/10/29 01:14:23;;;;;;;7.28;2.72;;;9.10;99.90;;;;;;5001656;28;20101;-81
2023/10/29 01:16:49;;;;;;;6.75;2.45;;;9.00;99.90;;;;;;5013236;28;20752;-81
2023/10/29 01:19:15;;;;;;;3.53;2.58;;;9.10;99.90;;;;;;5015035;28;20021;-82
2023/10/29 01:21:43;;;;;;;5.43;2.85;;;9.00;99.90;;;;;;5016152;28;20038;-80
2023/10/29 01:24:08;;;;;;;4.47;2.55;;;9.00;99.90;;;;;;5014727;28;20099;-81
2023/10/29 01:26:34;;;;;;;4.90;2.75;;;9.00;99.90;;;;;;5014692;28;20030;-81
2023/10/29 01:29:00;;;;;;;4.65;2.03;;;9.00;99.90;;;;;;5029950;28;20411;-81
2023/10/29 01:31:26;;;;;;;3.55;2.40;;;8.90;99.90;;;;;;5012752;28;20033;-79
2023/10/29 01:33:52;;;;;;;6.63;2.63;;;8.90;99.90;;;;;;5018678;28;20026;-81
2023/10/29 01:36:18;;;;;;;8.82;2.83;;;8.90;99.90;;;;;;5021784;28;20450;-81
2023/10/29 01:38:44;;;;;;;3.97;2.65;;;8.90;99.90;;;;;;5016494;28;20018;-80
2023/10/29 01:41:10;;;;;;;4.75;2.90;;;8.80;99.90;;;;;;4996933;28;20394;-79
2023/10/29 01:43:35;;;;;;;4.43;2.88;;;8.80;99.90;;;;;;5016210;28;20030;-81
2023/10/29 01:46:01;;;;;;;7.20;2.70;;;8.80;99.90;;;;;;5016272;28;20120;-81
2023/10/29 01:48:27;;;;;;;4.10;2.40;;;8.80;99.90;;;;;;5015261;28;20037;-79
2023/10/29 01:50:53;;;;;;;5.07;2.20;;;8.80;99.90;;;;;;5016179;28;20044;-82
2023/10/29 01:53:21;;;;;;;6.03;2.58;;;8.80;99.90;;;;;;5014372;28;20033;-80
2023/10/29 01:55:47;;;;;;;5.85;2.50;;;8.70;99.90;;;;;;5015049;28;20521;-82
2023/10/29 01:58:13;;;;;;;6.43;2.40;;;8.70;99.90;;;;;;5000418;28;20038;-80
2023/10/29 02:00:40;;;;;;;5.75;2.30;;;8.70;99.90;;;;;;5016538;28;20034;-78
2023/10/29 02:03:06;;;;;;;4.93;2.25;;;8.70;99.90;;;;;;5014501;28;20037;-81
2023/10/29 02:05:31;;;;;;;5.78;2.65;;;8.60;99.90;;;;;;5017947;28;20705;-81
2023/10/29 02:07:57;;;;;;;2.85;2.60;;;8.60;99.90;;;;;;5010176;28;20644;-81
2023/10/29 02:10:25;;;;;;;3.53;2.70;;;8.60;99.90;;;;;;5014508;28;20073;-81
2023/10/29 02:12:51;;;;;;;6.18;2.65;;;8.60;99.90;;;;;;5017407;28;20245;-81
2023/10/29 02:15:18;;;;;;;7.35;2.63;;;8.50;99.90;;;;;;5021588;28;20026;-80
2023/10/29 02:17:44;;;;;;;6.25;2.47;;;8.60;99.90;;;;;;5017968;28;20040;-80
2023/10/29 02:20:11;;;;;;;6.80;2.58;;;8.60;99.90;;;;;;5015026;28;20035;-80
2023/10/29 02:22:37;;;;;;;4.97;2.53;;;8.60;99.90;;;;;;5007203;28;20033;-80
2023/10/29 02:25:03;;;;;;;4.47;2.88;;;8.60;99.90;;;;;;4998050;28;20034;-79
2023/10/29 02:27:29;;;;;;;7.50;2.80;;;8.60;99.90;;;;;;5013364;28;20092;-80
2023/10/29 02:29:55;;;;;;;5.63;2.70;;;8.60;99.90;;;;;;5012996;28;20026;-80
2023/10/29 02:32:22;;;;;;;5.20;2.90;;;8.60;99.90;;;;;;5013203;28;20046;-80
2023/10/29 02:34:48;;;;;;;4.65;2.72;;;8.60;99.90;;;;;;5014599;28;20037;-80
2023/10/29 02:37:14;;;;;;;3.47;2.28;;;8.60;99.90;;;;;;5012403;28;20029;-80
2023/10/29 02:39:40;;;;;;;6.60;2.50;;;8.60;99.90;;;;;;5016642;28;20034;-81
2023/10/29 02:42:06;;;;;;;6.05;2.50;;;8.60;99.90;;;;;;5028123;28;20124;-80
2023/10/29 02:44:31;;;;;;;7.13;2.40;;;8.60;99.90;;;;;;4999916;28;20030;-80
2023/10/29 02:47:00;;;;;;;4.43;2.33;;;8.60;99.90;;;;;;5015244;28;20593;-81
2023/10/29 02:49:26;;;;;;;5.25;2.60;;;8.60;99.90;;;;;;5012106;28;20034;-81
2023/10/29 02:51:52;;;;;;;4.70;2.22;;;8.70;99.90;;;;;;5028832;28;20036;-81
2023/10/29 02:54:18;;;;;;;4.60;2.20;;;8.70;99.90;;;;;;5019419;28;20030;-80
2023/10/29 02:56:43;;;;;;;2.22;2.03;;;8.70;99.90;;;;;;5014763;28;20034;-80
2023/10/29 02:59:09;;;;;;;4.93;2.42;;;8.70;99.90;;;;;;5028523;28;20533;-81
2023/10/29 03:01:36;;;;;;;5.30;2.90;;;8.70;99.90;;;;;;5012712;28;20061;-82
2023/10/29 03:04:04;;;;;;;5.05;1.95;;;8.80;99.90;;;;;;5021628;28;20041;-81
2023/10/29 03:06:31;;;;;;;4.53;2.30;;;8.70;99.90;;;;;;5015436;28;20073;-81
2023/10/29 03:08:57;;;;;;;5.82;2.58;;;8.70;99.90;;;;;;5017310;28;20080;-81
2023/10/29 03:11:23;;;;;;;2.47;1.83;;;8.80;99.90;;;;;;5013808;28;20038;-80
2023/10/29 03:13:48;;;;;;;6.40;2.08;;;8.70;99.90;;;;;;5019755;28;20037;-81
2023/10/29 03:16:15;;;;;;;5.00;2.22;;;8.70;99.90;;;;;;5013778;28;20092;-80
2023/10/29 03:18:40;;;;;;;4.03;2.00;;;8.70;99.90;;;;;;5015265;28;20029;-81
2023/10/29 03:21:06;;;;;;;5.43;1.98;;;8.70;99.90;;;;;;5031248;28;20033;-80
2023/10/29 03:23:32;;;;;;;4.50;2.22;;;8.70;99.90;;;;;;4997495;28;20084;-79
2023/10/29 03:26:02;;;;;;;3.03;1.55;;;8.70;99.90;;;;;;5010680;28;20406;-80
2023/10/29 03:28:29;;;;;;;7.78;2.47;;;8.70;99.90;;;;;;5017189;28;20048;-81
2023/10/29 03:30:55;;;;;;;4.18;2.00;;;8.80;99.90;;;;;;5018932;28;20033;-81
2023/10/29 03:33:21;;;;;;;3.92;2.35;;;8.80;99.90;;;;;;5014850;28;20071;-79
2023/10/29 03:35:46;;;;;;;3.63;1.63;;;8.80;99.90;;;;;;4995127;28;20037;-82
2023/10/29 03:38:12;;;;;;;3.15;1.88;;;8.80;99.90;;;;;;5014858;28;20482;-80
2023/10/29 03:40:39;;;;;;;5.28;2.33;;;8.80;99.90;;;;;;5010803;28;20030;-82
2023/10/29 03:43:04;;;;;;;4.07;2.08;;;8.80;99.90;;;;;;5018357;28;20375;-81
2023/10/29 03:45:31;;;;;;;6.45;2.05;;;8.80;99.90;;;;;;5020285;28;20030;-82
2023/10/29 03:47:57;;;;;;;5.60;2.42;;;8.80;99.90;;;;;;4999370;28;20116;-81
2023/10/29 03:50:24;;;;;;;6.72;1.90;;;8.70;99.90;;;;;;5029973;28;20088;-81
2023/10/29 03:52:49;;;;;;;2.55;1.83;;;8.70;99.90;;;;;;5014526;28;20042;-80
2023/10/29 03:55:16;;;;;;;4.35;2.05;;;8.80;99.90;;;;;;5015511;28;20026;-81
2023/10/29 03:57:42;;;;;;;4.68;1.90;;;8.70;99.90;;;;;;5017345;28;20030;-80
2023/10/29 04:00:09;;;;;;;4.40;2.28;;;8.70;99.90;;;;;;5018066;28;20100;-82
2023/10/29 04:02:37;;;;;;;4.53;2.03;;;8.60;99.90;;;;;;5006838;28;20110;-81
2023/10/29 04:05:04;;;;;;;5.78;2.30;;;8.60;99.90;;;;;;5009295;28;20662;-83
2023/10/29 04:07:30;;;;;;;6.68;2.05;;;8.70;99.90;;;;;;5008883;28;20117;-82
2023/10/29 04:09:55;;;;;;;3.58;1.83;;;8.60;99.90;;;;;;5026978;28;20115;-82
2023/10/29 04:12:21;;;;;;;2.55;2.03;;;8.60;99.90;;;;;;5008741;28;20046;-80
2023/10/29 04:14:47;;;;;;;2.17;1.67;;;8.70;99.90;;;;;;5015428;28;20065;-83
2023/10/29 04:17:13;;;;;;;5.15;2.25;;;8.70;99.90;;;;;;5014441;28;20077;-81
2023/10/29 04:19:39;;;;;;;4.10;1.98;;;8.80;99.90;;;;;;5014364;28;20053;-81
2023/10/29 04:22:05;;;;;;;2.40;1.55;;;8.80;99.90;;;;;;5014957;28;20021;-80
2023/10/29 04:24:30;;;;;;;4.80;1.85;;;8.80;99.90;;;;;;5012840;28;20025;-81
2023/10/29 04:26:56;;;;;;;9.45;1.77;;;8.90;99.90;;;;;;5008094;28;20514;-83
2023/10/29 04:29:22;;;;;;;8.73;2.42;;;8.90;99.90;;;;;;5021435;28;20045;-83
2023/10/29 04:31:48;;;;;;;5.43;1.80;;;8.90;99.90;;;;;;5010152;28;20038;-81
2023/10/29 04:34:14;;;;;;;4.00;1.90;;;8.80;99.90;;;;;;5018498;28;20034;-82
2023/10/29 04:36:42;;;;;;;4.15;1.70;;;8.80;99.90;;;;;;4998292;28;20422;-80
2023/10/29 04:39:08;;;;;;;2.63;1.90;;;8.90;99.90;;;;;;5023078;28;20469;-80
2023/10/29 04:41:33;;;;;;;4.18;1.60;;;8.90;99.90;;;;;;5012579;28;20025;-81
2023/10/29 04:44:00;;;;;;;2.90;1.42;;;8.80;99.90;;;;;;5014821;28;20026;-81
2023/10/29 04:46:25;;;;;;;3.03;1.77;;;8.80;99.90;;;;;;5016470;28;21937;-82
2023/10/29 04:48:51;;;;;;;4.22;2.05;;;8.70;99.90;;;;;;5023519;28;20112;-81
2023/10/29 04:51:17;;;;;;;2.10;1.50;;;8.60;99.90;;;;;;5010079;28;20030;-81
2023/10/29 04:53:43;;;;;;;6.00;2.95;;;8.50;99.90;;;;;;5012169;28;20528;-81
2023/10/29 04:56:08;;;;;;;6.60;1.90;;;8.40;99.90;;;;;;5015865;28;20057;-80
2023/10/29 04:58:34;;;;;;;4.47;1.95;;;8.40;99.90;;;;;;5022317;28;20073;-80
2023/10/29 05:01:00;;;;;;;4.00;1.60;;;8.30;99.90;;;;;;5011174;28;20037;-80
2023/10/29 05:03:27;;;;;;;2.28;1.77;;;8.30;99.90;;;;;;5016533;28;20044;-81
2023/10/29 05:05:54;;;;;;;3.28;2.38;;;8.30;99.90;;;;;;5023068;28;20034;-79
2023/10/29 05:08:20;;;;;;;2.63;1.88;;;8.30;99.90;;;;;;5009668;28;20034;-82
2023/10/29 05:10:46;;;;;;;4.63;1.70;;;8.30;99.90;;;;;;4994396;28;20034;-81
2023/10/29 05:13:13;;;;;;;5.25;2.08;;;8.20;99.90;;;;;;5013300;28;20033;-80
2023/10/29 05:15:39;;;;;;;3.55;1.60;;;8.30;99.90;;;;;;5019195;28;20470;-82
2023/10/29 05:18:05;;;;;;;1.60;1.50;;;8.30;99.90;;;;;;5018285;28;20041;-80
2023/10/29 05:20:31;;;;;;;4.70;1.80;;;8.30;99.90;;;;;;5013855;28;20042;-81
2023/10/29 05:22:57;;;;;;;3.47;1.73;;;8.30;99.90;;;;;;5014454;28;20105;-81
2023/10/29 05:25:23;;;;;;;1.95;1.65;;;8.30;99.90;;;;;;5009992;28;20429;-81
2023/10/29 05:27:56;;;;;;;4.55;1.90;;;8.40;99.90;;;;;;5013132;28;20080;-82
2023/10/29 05:30:22;;;;;;;2.47;1.83;;;8.40;99.90;;;;;;5037311;28;20034;-79
2023/10/29 05:32:48;;;;;;;2.92;2.13;;;8.40;99.90;;;;;;5014234;28;20034;-81
2023/10/29 05:35:15;;;;;;;4.05;1.95;;;8.50;99.90;;;;;;5024664;28;20474;-79
2023/10/29 05:37:40;;;;;;;6.65;1.70;;;8.50;99.90;;;;;;5019555;28;20034;-81
2023/10/29 05:40:09;;;;;;;1.80;1.45;;;8.50;99.90;;;;;;5019409;28;20037;-79
2023/10/29 05:42:36;;;;;;;5.20;1.63;;;8.50;99.90;;;;;;5018014;28;20037;-80
2023/10/29 05:45:02;;;;;;;5.78;1.80;;;8.50;99.90;;;;;;5023815;28;20426;-80
2023/10/29 05:47:27;;;;;;;3.30;1.90;;;8.50;99.90;;;;;;5014686;28;20135;-81
2023/10/29 05:49:54;;;;;;;2.47;2.00;;;8.60;99.90;;;;;;5011949;28;20201;-81
2023/10/29 05:52:20;;;;;;;6.30;2.15;;;8.60;99.90;;;;;;5014414;28;20033;-80
2023/10/29 05:54:46;;;;;;;1.60;1.48;;;8.60;99.90;;;;;;5020216;28;20095;-81
2023/10/29 05:57:11;;;;;;;6.68;2.08;;;8.60;99.90;;;;;;5016169;28;20041;-78
2023/10/29 05:59:37;;;;;;;3.28;2.13;;;8.50;99.90;;;;;;5016043;28;20038;-78
2023/10/29 06:02:03;;;;;;;4.95;1.92;;;8.40;99.90;;;;;;5012724;28;20018;-81
2023/10/29 06:04:29;;;;;;;5.63;2.00;;;8.40;99.90;;;;;;5028219;28;20034;-80
2023/10/29 06:06:55;;;;;;;4.07;1.80;;;8.40;99.90;;;;;;5024398;28;20560;-82
2023/10/29 06:09:21;;;;;;;3.92;2.13;;;8.30;99.90;;;;;;5011621;28;20384;-80
2023/10/29 06:11:47;;;;;;;5.28;1.80;;;8.30;99.90;;;;;;5011758;28;20626;-81
2023/10/29 06:14:12;;;;;;;3.60;2.15;;;8.40;99.90;;;;;;5015553;28;20052;-81
2023/10/29 06:16:38;;;;;;;4.18;2.10;;;8.40;99.90;;;;;;5009149;28;20057;-83
2023/10/29 06:19:04;;;;;;;3.38;2.00;;;8.50;99.90;;;;;;5030656;28;20031;-80
2023/10/29 06:21:30;;;;;;;2.72;1.63;;;8.60;99.90;;;;;;5012763;28;20046;-80
2023/10/29 06:23:56;;;;;;;4.03;1.95;;;8.60;99.90;;;;;;5015761;28;20026;-80
2023/10/29 06:26:23;;;;;;;4.40;1.95;;;8.60;99.90;;;;;;5014438;28;20038;-80
2023/10/29 06:28:49;;;;;;;3.17;1.88;;;8.50;99.90;;;;;;5012295;28;20100;-81
2023/10/29 06:31:15;;;;;;;4.72;2.10;;;8.50;99.90;;;;;;5010086;28;20072;-80
2023/10/29 06:33:41;;;;;;;3.20;1.70;;;8.60;99.90;;;;;;5010143;28;20061;-80
2023/10/29 06:36:08;;;;;;;4.75;1.83;;;8.60;99.90;;;;;;5011128;28;20381;-80
2023/10/29 06:38:34;;;;;;;4.28;1.75;;;8.70;99.90;;;;;;5012408;28;20052;-80
2023/10/29 06:41:00;;;;;;;3.63;1.92;;;8.70;99.90;;;;;;5003787;28;20026;-82
2023/10/29 06:43:26;;;;;;;4.82;1.85;;;8.70;99.90;;;;;;5013320;28;20026;-79
2023/10/29 06:45:52;;;;;;;1.70;1.40;;;8.70;99.90;;;;;;5016750;28;20041;-78
2023/10/29 06:48:18;;;;;;;4.15;1.65;;;8.70;99.90;;;;;;5016225;28;20080;-81
2023/10/29 06:50:44;;;;;;;1.98;1.50;;;8.70;99.90;;;;;;5026913;28;20036;-81
2023/10/29 06:53:10;;;;;;;3.95;1.92;;;8.70;99.90;;;;;;5019618;28;20053;-81
2023/10/29 06:55:37;;;;;;;2.28;1.90;;;8.60;99.90;;;;;;5023646;28;20037;-82
2023/10/29 06:58:03;;;;;;;4.47;1.73;;;8.70;99.90;;;;;;5012651;28;20038;-82
2023/10/29 07:00:31;;;;;;;3.33;1.85;;;8.70;99.90;;;;;;5014222;28;20048;-83
2023/10/29 07:02:57;;;;;;;4.57;1.85;;;8.70;99.90;;;;;;5015881;28;20022;-82
2023/10/29 07:05:23;;;;;;;4.72;1.83;;;8.80;99.90;;;;;;5021364;28;20564;-81
2023/10/29 07:07:49;;;;;;;2.95;1.88;;;8.80;99.90;;;;;;5010779;28;20698;-81
2023/10/29 07:10:14;;;;;;;2.90;1.80;;;8.80;99.90;;;;;;5000832;28;20029;-81
2023/10/29 07:12:40;;;;;;;2.33;1.60;;;8.90;99.90;;;;;;5006819;28;20136;-81
2023/10/29 07:15:08;;;;;;;2.72;1.48;;;8.90;99.90;;;;;;5009744;28;20048;-80
2023/10/29 07:17:34;;;;;;;2.60;1.55;;;8.90;99.90;;;;;;5009988;28;20029;-81
2023/10/29 07:20:00;;;;;;;5.47;1.60;;;9.00;99.90;;;;;;5011751;28;20022;-80
2023/10/29 07:22:26;;;;;;;2.05;1.55;;;9.10;99.90;;;;;;5022161;28;20042;-82
2023/10/29 07:24:51;;;;;;;4.78;1.77;;;9.20;99.90;;;;;;5017533;28;20022;-81
2023/10/29 07:27:17;;;;;;;1.88;1.50;;;9.30;99.90;;;;;;5014779;28;20096;-82
2023/10/29 07:29:43;;;;;;;2.25;1.73;;;9.40;99.90;;;;;;5014924;28;20038;-82
2023/10/29 07:32:09;;;;;;;2.72;1.67;;;9.40;99.90;;;;;;5009937;28;20038;-80
2023/10/29 07:34:35;;;;;;;3.00;1.50;;;9.30;99.90;;;;;;5009440;28;20029;-81
2023/10/29 07:37:00;;;;;;;2.00;1.33;;;9.30;99.90;;;;;;5025832;28;20034;-80
2023/10/29 07:39:26;;;;;;;5.65;1.90;;;9.40;99.90;;;;;;5012671;28;20061;-82
2023/10/29 07:41:52;;;;;;;2.38;1.60;;;9.30;99.90;;;;;;5011847;28;20041;-81
2023/10/29 07:44:18;;;;;;;5.65;1.20;;;9.30;99.90;;;;;;5012826;28;20018;-78
2023/10/29 07:46:44;;;;;;;4.60;1.48;;;9.30;99.90;;;;;;5006122;28;20143;-80
2023/10/29 07:49:10;;;;;;;1.48;1.38;;;9.40;99.90;;;;;;5004874;28;20540;-81
2023/10/29 07:51:35;;;;;;;2.20;1.40;;;9.40;99.90;;;;;;5009857;28;20102;-80
2023/10/29 07:54:19;;;;;;;2.20;1.60;;;9.40;99.90;;;;;;5020576;28;20053;-80
2023/10/29 07:56:45;;;;;;;1.73;1.48;;;9.40;99.90;;;;;;5021726;28;20029;-82
2023/10/29 07:59:11;;;;;;;2.00;1.10;;;9.50;99.90;;;;;;5015428;28;20034;-79
2023/10/29 08:01:37;;;;;;;2.95;1.35;;;9.60;99.90;;;;;;5013283;28;20033;-79
2023/10/29 08:04:03;;;;;;;2.25;1.10;;;9.60;99.90;;;;;;5014025;28;20121;-79
2023/10/29 08:06:28;;;;;;;1.70;1.30;;;9.70;99.90;;;;;;5011686;28;20125;-81
2023/10/29 08:08:54;;;;;;;4.70;1.40;;;9.80;99.90;;;;;;5011470;28;20034;-79
2023/10/29 08:11:21;;;;;;;3.92;1.48;;;9.90;99.90;;;;;;5007684;28;20034;-80
2023/10/29 08:13:47;;;;;;;1.77;1.30;;;9.90;99.90;;;;;;5010519;28;20429;-80
2023/10/29 08:16:13;;;;;;;2.53;1.35;;;9.80;99.90;;;;;;5012647;28;20357;-81
2023/10/29 08:18:40;;;;;;;2.97;1.50;;;9.80;99.90;;;;;;5008003;28;20036;-80
2023/10/29 08:21:06;;;;;;;2.05;1.10;;;9.90;99.90;;;;;;5008627;28;20109;-81
2023/10/29 08:23:32;;;;;;;4.05;1.10;;;10.00;99.90;;;;;;5008088;28;20495;-79
2023/10/29 08:25:58;;;;;;;3.65;1.40;;;10.00;99.90;;;;;;5010823;28;20569;-80
2023/10/29 08:28:27;;;;;;;1.58;1.20;;;10.00;99.90;;;;;;5031188;28;20030;-80
2023/10/29 08:30:54;;;;;;;3.13;1.30;;;10.00;99.90;;;;;;5011612;28;20112;-79
2023/10/29 08:33:20;;;;;;;2.28;1.35;;;10.00;99.90;;;;;;5011549;28;20034;-80
2023/10/29 08:35:46;;;;;;;1.70;1.40;;;10.00;99.90;;;;;;5019870;28;20089;-81
2023/10/29 08:38:12;;;;;;;2.03;1.50;;;10.10;99.90;;;;;;5010390;28;20034;-81
2023/10/29 08:40:38;;;;;;;1.70;1.08;;;10.10;99.90;;;;;;5009669;28;20109;-81
2023/10/29 08:43:07;;;;;;;1.55;1.38;;;10.20;99.90;;;;;;5010763;28;20030;-80
2023/10/29 08:45:34;;;;;;;3.00;1.50;;;10.20;99.90;;;;;;5014981;28;20030;-79
2023/10/29 08:47:59;;;;;;;1.45;1.25;;;10.30;99.90;;;;;;5007300;28;20026;-81
2023/10/29 08:50:27;;;;;;;4.93;1.60;;;10.30;99.90;;;;;;5012493;28;20041;-81
2023/10/29 08:52:53;;;;;;;2.58;1.60;;;10.40;99.90;;;;;;5008536;28;20086;-82
2023/10/29 08:55:18;;;;;;;1.50;1.40;;;10.40;99.90;;;;;;5020490;28;20105;-81
2023/10/29 08:57:44;;;;;;;3.47;1.50;;;10.40;99.90;;;;;;5008806;28;20041;-80
2023/10/29 09:00:10;;;;;;;1.52;1.10;;;10.40;99.90;;;;;;5012259;28;20034;-80
2023/10/29 09:02:36;;;;;;;2.97;1.20;;;10.40;99.90;;;;;;4992853;28;20034;-80
2023/10/29 09:05:02;;;;;;;1.75;1.23;;;10.40;99.90;;;;;;5021458;28;20498;-80
2023/10/29 09:07:28;;;;;;;3.25;1.20;;;10.40;99.90;;;;;;4995149;28;20048;-80
2023/10/29 09:09:54;;;;;;;2.45;1.20;;;10.40;99.90;;;;;;5000947;28;20022;-81
2023/10/29 09:12:26;;;;;;;1.60;1.30;;;10.40;99.90;;;;;;5017213;28;20045;-77
2023/10/29 09:14:52;;;;;;;7.93;3.67;;;10.30;99.90;;;;;;4997662;28;20030;-80
2023/10/29 09:17:18;;;;;;;7.40;3.63;;;10.20;99.90;;;;;;5017603;28;20505;-80
2023/10/29 09:19:43;;;;;;;5.68;3.63;;;10.30;99.90;;;;;;5017769;28;20037;-80
2023/10/29 09:22:09;;;;;;;2.65;2.13;;;10.30;99.90;;;;;;5006902;28;20034;-80
2023/10/29 09:24:35;;;;;;;4.32;1.85;;;10.20;99.90;;;;;;5037809;28;20025;-80
2023/10/29 09:27:01;;;;;;;2.70;2.42;;;10.20;99.90;;;;;;5020864;28;20021;-81
2023/10/29 09:29:29;;;;;;;3.45;2.35;;;10.30;99.90;;;;;;5019827;28;20101;-81
2023/10/29 09:31:55;;;;;;;3.72;1.80;;;10.30;99.90;;;;;;5010607;28;20030;-80
2023/10/29 09:34:21;;;;;;;2.85;1.83;;;10.50;99.90;;;;;;5010927;28;20605;-79
2023/10/29 09:36:47;;;;;;;2.97;2.17;;;10.60;99.90;;;;;;5011125;28;20516;-80
2023/10/29 09:39:12;;;;;;;2.97;1.67;;;10.80;99.90;;;;;;5014948;28;20042;-80
2023/10/29 09:41:38;;;;;;;2.00;1.70;;;10.90;99.90;;;;;;5014909;28;20014;-79
2023/10/29 09:44:08;;;;;;;3.10;1.60;;;11.00;99.90;;;;;;5014816;28;20033;-80
2023/10/29 09:46:36;;;;;;;2.28;1.80;;;11.10;99.90;;;;;;5015853;28;20029;-79
2023/10/29 09:49:03;;;;;;;2.75;1.65;;;11.20;99.90;;;;;;5017650;28;20044;-81
2023/10/29 09:51:48;;;;;;;4.85;1.70;;;11.30;99.90;;;;;;5008413;28;20069;-80
2023/10/29 09:54:14;;;;;;;2.35;1.63;;;11.40;99.90;;;;;;5020637;28;20034;-83
2023/10/29 09:56:40;;;;;;;5.35;1.80;;;11.50;99.90;;;;;;5027290;28;20025;-83
2023/10/29 09:59:07;;;;;;;3.00;1.70;;;11.60;99.90;;;;;;5031382;28;20030;-78
2023/10/29 10:01:33;;;;;;;2.83;1.95;;;11.80;99.90;;;;;;5015382;28;20109;-78
2023/10/29 10:03:59;;;;;;;2.38;2.08;;;11.90;99.90;;;;;;5018244;28;20030;-81
2023/10/29 10:06:27;;;;;;;4.18;1.83;;;12.00;99.90;;;;;;5021350;28;20037;-82
2023/10/29 10:08:59;;;;;;;1.98;1.45;;;12.10;99.90;;;;;;5018378;28;20722;-82
2023/10/29 10:11:25;;;;;;;2.40;1.70;;;12.20;99.90;;;;;;5009660;28;20093;-84
2023/10/29 10:13:51;;;;;;;1.63;1.20;;;12.20;99.90;;;;;;5020371;28;20449;-81
2023/10/29 10:16:19;;;;;;;2.33;1.20;;;12.20;99.90;;;;;;5020294;28;20654;-79
2023/10/29 10:18:57;;;;;;;1.00;0.90;;;12.30;99.90;;;;;;5012119;28;20037;-82
2023/10/29 10:21:44;;;;;;;2.97;1.02;;;12.30;99.90;;;;;;5009926;28;20138;-83
2023/10/29 10:24:10;;;;;;;2.38;0.95;;;12.30;99.90;;;;;;5016996;28;20088;-82
2023/10/29 10:26:38;;;;;;;2.13;1.25;;;12.40;99.90;;;;;;4993948;28;20029;-82
2023/10/29 10:29:07;;;;;;;2.65;1.13;;;12.40;99.90;;;;;;5006069;28;20023;-80
2023/10/29 10:31:35;;;;;;;1.38;1.00;;;12.50;99.90;;;;;;5005691;28;20049;-81
2023/10/29 10:34:18;;;;;;;2.38;1.00;;;12.50;99.90;;;;;;5003344;28;20076;-80
2023/10/29 10:36:45;;;;;;;1.02;0.70;;;12.60;99.90;;;;;;5007126;28;20028;-83
2023/10/29 10:39:12;;;;;;;1.67;1.27;;;12.60;99.90;;;;;;5004933;28;20712;-81
2023/10/29 10:41:46;;;;;;;0.80;0.80;;;12.70;99.90;;;;;;5023373;28;20021;-82
2023/10/29 10:44:20;;;;;;;2.50;1.15;;;12.70;99.90;;;;;;5029276;28;20023;-81
2023/10/29 10:47:05;;;;;;;2.17;0.80;;;12.70;99.90;;;;;;5009702;28;20045;-79
2023/10/29 10:49:32;;;;;;;1.98;1.20;;;12.80;99.90;;;;;;5015990;28;20034;-83
2023/10/29 10:52:01;;;;;;;1.90;0.98;;;12.90;99.90;;;;;;5013079;28;20049;-84
2023/10/29 10:54:27;;;;;;;2.30;0.98;;;12.90;99.90;;;;;;5014674;28;20079;-83
2023/10/29 10:56:55;;;;;;;1.50;0.75;;;12.90;99.90;;;;;;5014439;28;20049;-82
2023/10/29 10:59:22;;;;;;;3.45;0.95;;;13.00;99.90;;;;;;5028633;28;20505;-83
2023/10/29 11:01:48;;;;;;;1.95;1.00;;;13.00;99.90;;;;;;5017474;28;20038;-79
2023/10/29 11:04:15;;;;;;;1.58;1.08;;;12.90;99.90;;;;;;5009038;28;20056;-82
2023/10/29 11:06:42;;;;;;;2.30;0.90;;;13.00;99.90;;;;;;5013687;28;20052;-81
2023/10/29 11:09:13;;;;;;;1.90;1.05;;;13.00;99.90;;;;;;4994609;28;20087;-84
2023/10/29 11:11:53;;;;;;;1.50;1.10;;;13.00;99.90;;;;;;4997899;28;20434;-83
2023/10/29 11:14:20;;;;;;;1.02;0.80;;;12.90;99.90;;;;;;5012362;28;20025;-83
2023/10/29 11:16:56;;;;;;;1.05;0.82;;;12.80;99.90;;;;;;5013715;28;20018;-82
2023/10/29 11:19:47;;;;;;;0.98;0.80;;;12.80;99.90;;;;;;5031939;28;20037;-82
2023/10/29 11:22:31;;;;;;;4.00;1.00;;;12.80;99.90;;;;;;5009453;28;20041;-82
2023/10/29 11:25:08;;;;;;;1.50;1.00;;;12.70;99.90;;;;;;5008786;28;20526;-83
2023/10/29 11:27:45;;;;;;;1.85;1.05;;;12.70;99.90;;;;;;5017274;28;20508;-83
2023/10/29 11:30:21;;;;;;;1.30;1.20;;;12.80;99.90;;;;;;5013275;28;20030;-83
2023/10/29 11:33:05;;;;;;;1.65;0.90;;;12.90;99.90;;;;;;5003349;28;20057;-81
2023/10/29 11:35:32;;;;;;;3.33;1.13;;;13.00;99.90;;;;;;5008310;28;20394;-79
2023/10/29 11:38:00;;;;;;;2.70;1.30;;;13.00;99.90;;;;;;5011507;28;20021;-79
2023/10/29 11:40:25;;;;;;;1.98;1.50;;;13.00;99.90;;;;;;5010111;28;20049;-82
2023/10/29 11:42:52;;;;;;;2.10;1.10;;;13.00;99.90;;;;;;5009386;28;20050;-82
2023/10/29 11:45:31;;;;;;;2.70;1.13;;;13.00;99.90;;;;;;5010904;28;20025;-81
2023/10/29 11:48:06;;;;;;;1.40;0.98;;;13.10;99.90;;;;;;5013009;28;20030;-83
2023/10/29 11:50:55;;;;;;;1.30;0.80;;;13.10;99.90;;;;;;5008271;28;20037;-83
2023/10/29 11:53:27;;;;;;;1.17;1.08;;;13.10;99.90;;;;;;5003502;28;20053;-81
2023/10/29 11:55:57;;;;;;;1.33;1.10;;;13.10;99.90;;;;;;5010833;28;20030;-82
2023/10/29 11:58:24;;;;;;;1.20;1.10;;;13.20;99.90;;;;;;5019988;28;20693;-82
2023/10/29 12:00:50;;;;;;;1.92;0.80;;;13.20;99.90;;;;;;5010046;28;20520;-83
2023/10/29 12:03:20;;;;;;;1.45;0.90;;;13.20;99.90;;;;;;5006762;28;20072;-83
2023/10/29 12:05:53;;;;;;;1.50;0.93;;;13.10;99.90;;;;;;5011090;28;20037;-82
2023/10/29 12:08:19;;;;;;;5.88;1.77;;;13.10;99.90;;;;;;5010466;28;20028;-83
2023/10/29 12:11:04;;;;;;;1.17;1.08;;;13.00;99.90;;;;;;5016696;28;20056;-83
2023/10/29 12:13:40;;;;;;;1.15;0.90;;;12.90;99.90;;;;;;5010133;28;20145;-82
2023/10/29 12:16:07;;;;;;;1.52;1.20;;;12.90;99.90;;;;;;5017685;28;20062;-80
2023/10/29 12:18:33;;;;;;;2.53;1.10;;;12.90;99.90;;;;;;5015377;28;20033;-82
2023/10/29 12:21:26;;;;;;;2.13;1.00;;;12.90;99.90;;;;;;5012673;28;20018;-84
2023/10/29 12:24:09;;;;;;;2.28;1.10;;;12.90;99.90;;;;;;5023321;28;20045;-82
2023/10/29 12:26:36;;;;;;;2.13;1.30;;;12.80;99.90;;;;;;5017463;28;20041;-81
2023/10/29 12:29:02;;;;;;;2.25;1.45;;;12.80;99.90;;;;;;5017700;28;20609;-84
2023/10/29 12:31:29;;;;;;;2.50;1.30;;;12.70;99.90;;;;;;4979405;28;20030;-82
2023/10/29 12:33:59;;;;;;;1.58;1.45;;;12.70;99.90;;;;;;4996971;28;20034;-82
2023/10/29 12:36:26;;;;;;;3.58;1.35;;;12.60;99.90;;;;;;5036172;28;20034;-81
2023/10/29 12:38:53;;;;;;;2.15;1.38;;;12.60;99.90;;;;;;5017104;28;20030;-82
2023/10/29 12:41:23;;;;;;;5.03;2.00;;;12.50;99.90;;;;;;5013892;28;20034;-80
2023/10/29 12:43:53;;;;;;;1.88;1.30;;;12.40;99.90;;;;;;5016430;28;20030;-81
2023/10/29 12:46:31;;;;;;;1.98;0.82;;;12.30;99.90;;;;;;5017644;28;20069;-82
2023/10/29 12:49:08;;;;;;;1.88;1.08;;;12.20;99.90;;;;;;5011494;28;20100;-83
2023/10/29 12:51:40;;;;;;;3.35;1.30;;;12.20;99.90;;;;;;5035059;28;20026;-82
2023/10/29 12:54:43;;;;;;;2.53;1.50;;;12.20;99.90;;;;;;5018284;28;20026;-81